sensor_id;sensor_type;location;lat;lon;timestamp;P1;durP1;ratioP1;P2;durP2;ratioP2
25731;SDS011;13585;50.864;4.406;2023-08-24T00:02:01;4.18;;;2.83;;
25731;SDS011;13585;50.864;4.406;2023-08-24T00:04:27;4.35;;;2.80;;
25731;SDS011;13585;50.864;4.406;2023-08-24T00:06:53;8.18;;;3.10;;
25731;SDS011;13585;50.864;4.406;2023-08-24T00:09:19;4.25;;;2.97;;
25731;SDS011;13585;50.864;4.406;2023-08-24T00:11:48;5.03;;;3.17;;
25731;SDS011;13585;50.864;4.406;2023-08-24T00:14:23;6.05;;;3.10;;
25731;SDS011;13585;50.864;4.406;2023-08-24T00:16:48;8.68;;;3.03;;
25731;SDS011;13585;50.864;4.406;2023-08-24T00:19:14;4.97;;;3.08;;
25731;SDS011;13585;50.864;4.406;2023-08-24T00:21:39;4.50;;;2.60;;
25731;SDS011;13585;50.864;4.406;2023-08-24T00:26:40;3.60;;;2.75;;
25731;SDS011;13585;50.864;4.406;2023-08-24T00:29:25;3.85;;;2.95;;
25731;SDS011;13585;50.864;4.406;2023-08-24T00:31:53;5.18;;;2.83;;
25731;SDS011;13585;50.864;4.406;2023-08-24T00:34:27;3.97;;;2.97;;
25731;SDS011;13585;50.864;4.406;2023-08-24T00:36:53;5.80;;;3.15;;
25731;SDS011;13585;50.864;4.406;2023-08-24T00:39:26;6.68;;;2.70;;
25731;SDS011;13585;50.864;4.406;2023-08-24T00:42:01;5.15;;;2.80;;
25731;SDS011;13585;50.864;4.406;2023-08-24T00:47:42;3.97;;;2.38;;
25731;SDS011;13585;50.864;4.406;2023-08-24T00:50:26;4.80;;;2.90;;
25731;SDS011;13585;50.864;4.406;2023-08-24T00:52:52;3.10;;;2.38;;
25731;SDS011;13585;50.864;4.406;2023-08-24T00:55:19;3.30;;;2.38;;
25731;SDS011;13585;50.864;4.406;2023-08-24T00:57:46;2.97;;;2.30;;
25731;SDS011;13585;50.864;4.406;2023-08-24T01:00:18;4.13;;;2.88;;
25731;SDS011;13585;50.864;4.406;2023-08-24T01:02:44;3.72;;;2.60;;
25731;SDS011;13585;50.864;4.406;2023-08-24T01:05:19;3.67;;;2.30;;
25731;SDS011;13585;50.864;4.406;2023-08-24T01:08:09;5.93;;;3.25;;
25731;SDS011;13585;50.864;4.406;2023-08-24T01:13:36;5.88;;;2.60;;
25731;SDS011;13585;50.864;4.406;2023-08-24T01:16:11;5.22;;;2.50;;
25731;SDS011;13585;50.864;4.406;2023-08-24T01:18:41;4.32;;;2.90;;
25731;SDS011;13585;50.864;4.406;2023-08-24T01:21:08;4.38;;;2.78;;
25731;SDS011;13585;50.864;4.406;2023-08-24T01:26:20;5.20;;;2.75;;
25731;SDS011;13585;50.864;4.406;2023-08-24T01:28:46;3.97;;;2.88;;
25731;SDS011;13585;50.864;4.406;2023-08-24T01:31:15;3.80;;;2.60;;
25731;SDS011;13585;50.864;4.406;2023-08-24T01:33:42;4.35;;;2.53;;
25731;SDS011;13585;50.864;4.406;2023-08-24T01:36:08;4.88;;;2.65;;
25731;SDS011;13585;50.864;4.406;2023-08-24T01:38:36;5.85;;;2.63;;
25731;SDS011;13585;50.864;4.406;2023-08-24T01:41:06;4.82;;;2.70;;
25731;SDS011;13585;50.864;4.406;2023-08-24T01:43:41;5.07;;;2.50;;
25731;SDS011;13585;50.864;4.406;2023-08-24T01:46:14;3.47;;;2.55;;
25731;SDS011;13585;50.864;4.406;2023-08-24T01:48:42;5.45;;;2.63;;
25731;SDS011;13585;50.864;4.406;2023-08-24T01:51:09;4.18;;;2.90;;
25731;SDS011;13585;50.864;4.406;2023-08-24T01:53:35;3.65;;;2.45;;
25731;SDS011;13585;50.864;4.406;2023-08-24T01:56:07;4.95;;;2.90;;
25731;SDS011;13585;50.864;4.406;2023-08-24T01:58:37;4.38;;;2.47;;
25731;SDS011;13585;50.864;4.406;2023-08-24T02:01:04;4.20;;;2.35;;
25731;SDS011;13585;50.864;4.406;2023-08-24T02:03:30;3.72;;;2.60;;
25731;SDS011;13585;50.864;4.406;2023-08-24T02:05:56;3.85;;;2.78;;
25731;SDS011;13585;50.864;4.406;2023-08-24T02:08:21;5.72;;;2.58;;
25731;SDS011;13585;50.864;4.406;2023-08-24T02:10:47;3.75;;;2.78;;
25731;SDS011;13585;50.864;4.406;2023-08-24T02:13:12;4.30;;;2.63;;
25731;SDS011;13585;50.864;4.406;2023-08-24T02:15:38;4.43;;;2.72;;
25731;SDS011;13585;50.864;4.406;2023-08-24T02:18:07;4.93;;;2.55;;
25731;SDS011;13585;50.864;4.406;2023-08-24T02:20:36;6.13;;;3.00;;
25731;SDS011;13585;50.864;4.406;2023-08-24T02:23:02;4.70;;;2.78;;
25731;SDS011;13585;50.864;4.406;2023-08-24T02:25:29;5.15;;;2.70;;
25731;SDS011;13585;50.864;4.406;2023-08-24T02:27:54;4.53;;;2.70;;
25731;SDS011;13585;50.864;4.406;2023-08-24T02:30:20;4.80;;;2.70;;
25731;SDS011;13585;50.864;4.406;2023-08-24T02:32:46;3.63;;;2.55;;
25731;SDS011;13585;50.864;4.406;2023-08-24T02:35:11;4.15;;;2.55;;
25731;SDS011;13585;50.864;4.406;2023-08-24T02:37:37;3.85;;;2.55;;
25731;SDS011;13585;50.864;4.406;2023-08-24T02:40:02;3.83;;;2.38;;
25731;SDS011;13585;50.864;4.406;2023-08-24T02:42:33;5.13;;;2.45;;
25731;SDS011;13585;50.864;4.406;2023-08-24T02:44:58;4.18;;;2.70;;
25731;SDS011;13585;50.864;4.406;2023-08-24T02:47:24;4.53;;;2.50;;
25731;SDS011;13585;50.864;4.406;2023-08-24T02:49:50;5.10;;;3.08;;
25731;SDS011;13585;50.864;4.406;2023-08-24T02:52:16;4.97;;;2.95;;
25731;SDS011;13585;50.864;4.406;2023-08-24T02:54:41;4.35;;;2.65;;
25731;SDS011;13585;50.864;4.406;2023-08-24T02:57:07;4.30;;;2.47;;
25731;SDS011;13585;50.864;4.406;2023-08-24T02:59:33;4.40;;;2.63;;
25731;SDS011;13585;50.864;4.406;2023-08-24T03:01:58;4.53;;;2.83;;
25731;SDS011;13585;50.864;4.406;2023-08-24T03:04:24;3.85;;;2.80;;
25731;SDS011;13585;50.864;4.406;2023-08-24T03:06:50;5.72;;;2.92;;
25731;SDS011;13585;50.864;4.406;2023-08-24T03:09:15;3.72;;;2.80;;
25731;SDS011;13585;50.864;4.406;2023-08-24T03:11:41;4.32;;;2.55;;
25731;SDS011;13585;50.864;4.406;2023-08-24T03:14:07;3.15;;;2.67;;
25731;SDS011;13585;50.864;4.406;2023-08-24T03:16:32;4.38;;;2.97;;
25731;SDS011;13585;50.864;4.406;2023-08-24T03:18:59;4.05;;;2.90;;
25731;SDS011;13585;50.864;4.406;2023-08-24T03:21:24;3.80;;;2.60;;
25731;SDS011;13585;50.864;4.406;2023-08-24T03:23:50;3.63;;;2.40;;
25731;SDS011;13585;50.864;4.406;2023-08-24T03:26:15;3.78;;;2.88;;
25731;SDS011;13585;50.864;4.406;2023-08-24T03:28:42;4.57;;;2.88;;
25731;SDS011;13585;50.864;4.406;2023-08-24T03:31:08;3.78;;;2.50;;
25731;SDS011;13585;50.864;4.406;2023-08-24T03:33:33;3.38;;;2.58;;
25731;SDS011;13585;50.864;4.406;2023-08-24T03:36:00;3.30;;;2.38;;
25731;SDS011;13585;50.864;4.406;2023-08-24T03:38:26;3.10;;;2.50;;
25731;SDS011;13585;50.864;4.406;2023-08-24T03:40:52;3.95;;;2.90;;
25731;SDS011;13585;50.864;4.406;2023-08-24T03:43:56;6.25;;;2.72;;
25731;SDS011;13585;50.864;4.406;2023-08-24T03:46:21;4.07;;;2.55;;
25731;SDS011;13585;50.864;4.406;2023-08-24T03:48:47;3.05;;;2.38;;
25731;SDS011;13585;50.864;4.406;2023-08-24T03:51:12;5.53;;;2.78;;
25731;SDS011;13585;50.864;4.406;2023-08-24T03:53:38;3.58;;;2.35;;
25731;SDS011;13585;50.864;4.406;2023-08-24T03:56:04;4.18;;;2.60;;
25731;SDS011;13585;50.864;4.406;2023-08-24T03:58:29;3.15;;;2.65;;
25731;SDS011;13585;50.864;4.406;2023-08-24T04:00:55;2.97;;;2.53;;
25731;SDS011;13585;50.864;4.406;2023-08-24T04:03:20;5.50;;;2.88;;
25731;SDS011;13585;50.864;4.406;2023-08-24T04:05:46;8.57;;;2.50;;
25731;SDS011;13585;50.864;4.406;2023-08-24T04:08:12;4.15;;;2.55;;
25731;SDS011;13585;50.864;4.406;2023-08-24T04:10:37;4.35;;;2.60;;
25731;SDS011;13585;50.864;4.406;2023-08-24T04:13:03;3.67;;;2.67;;
25731;SDS011;13585;50.864;4.406;2023-08-24T04:15:29;4.18;;;2.95;;
25731;SDS011;13585;50.864;4.406;2023-08-24T04:17:55;5.10;;;2.38;;
25731;SDS011;13585;50.864;4.406;2023-08-24T04:20:21;4.03;;;2.47;;
25731;SDS011;13585;50.864;4.406;2023-08-24T04:22:47;4.85;;;3.15;;
25731;SDS011;13585;50.864;4.406;2023-08-24T04:25:13;5.10;;;2.60;;
25731;SDS011;13585;50.864;4.406;2023-08-24T04:27:38;3.20;;;2.30;;
25731;SDS011;13585;50.864;4.406;2023-08-24T04:30:25;5.53;;;2.80;;
25731;SDS011;13585;50.864;4.406;2023-08-24T04:35:16;3.42;;;2.40;;
25731;SDS011;13585;50.864;4.406;2023-08-24T04:37:42;6.45;;;2.80;;
25731;SDS011;13585;50.864;4.406;2023-08-24T04:40:08;4.97;;;2.60;;
25731;SDS011;13585;50.864;4.406;2023-08-24T04:42:34;3.92;;;2.50;;
25731;SDS011;13585;50.864;4.406;2023-08-24T04:45:00;4.00;;;2.40;;
25731;SDS011;13585;50.864;4.406;2023-08-24T04:47:26;4.03;;;2.40;;
25731;SDS011;13585;50.864;4.406;2023-08-24T04:49:51;4.25;;;2.50;;
25731;SDS011;13585;50.864;4.406;2023-08-24T04:52:17;2.92;;;2.42;;
25731;SDS011;13585;50.864;4.406;2023-08-24T04:54:42;3.97;;;2.40;;
25731;SDS011;13585;50.864;4.406;2023-08-24T04:57:08;3.97;;;2.75;;
25731;SDS011;13585;50.864;4.406;2023-08-24T04:59:33;5.35;;;2.92;;
25731;SDS011;13585;50.864;4.406;2023-08-24T05:01:59;4.55;;;2.63;;
25731;SDS011;13585;50.864;4.406;2023-08-24T05:04:25;4.18;;;2.70;;
25731;SDS011;13585;50.864;4.406;2023-08-24T05:06:50;4.65;;;2.67;;
25731;SDS011;13585;50.864;4.406;2023-08-24T05:09:16;3.65;;;2.60;;
25731;SDS011;13585;50.864;4.406;2023-08-24T05:11:41;4.88;;;2.67;;
25731;SDS011;13585;50.864;4.406;2023-08-24T05:14:08;5.05;;;2.65;;
25731;SDS011;13585;50.864;4.406;2023-08-24T05:16:34;5.57;;;2.47;;
25731;SDS011;13585;50.864;4.406;2023-08-24T05:19:00;3.40;;;2.30;;
25731;SDS011;13585;50.864;4.406;2023-08-24T05:21:26;4.88;;;2.65;;
25731;SDS011;13585;50.864;4.406;2023-08-24T05:23:52;2.83;;;2.40;;
25731;SDS011;13585;50.864;4.406;2023-08-24T05:26:17;4.63;;;2.50;;
25731;SDS011;13585;50.864;4.406;2023-08-24T05:28:47;4.10;;;2.33;;
25731;SDS011;13585;50.864;4.406;2023-08-24T05:31:13;2.80;;;2.13;;
25731;SDS011;13585;50.864;4.406;2023-08-24T05:33:38;3.50;;;2.33;;
25731;SDS011;13585;50.864;4.406;2023-08-24T05:36:04;4.40;;;2.33;;
25731;SDS011;13585;50.864;4.406;2023-08-24T05:38:30;3.22;;;2.28;;
25731;SDS011;13585;50.864;4.406;2023-08-24T05:40:55;3.45;;;2.13;;
25731;SDS011;13585;50.864;4.406;2023-08-24T05:43:21;3.50;;;2.40;;
25731;SDS011;13585;50.864;4.406;2023-08-24T05:45:47;4.00;;;2.47;;
25731;SDS011;13585;50.864;4.406;2023-08-24T05:48:13;3.28;;;2.15;;
25731;SDS011;13585;50.864;4.406;2023-08-24T05:50:42;2.88;;;2.30;;
25731;SDS011;13585;50.864;4.406;2023-08-24T05:53:09;3.83;;;2.50;;
25731;SDS011;13585;50.864;4.406;2023-08-24T05:55:34;4.43;;;2.25;;
25731;SDS011;13585;50.864;4.406;2023-08-24T05:58:00;4.03;;;2.33;;
25731;SDS011;13585;50.864;4.406;2023-08-24T06:00:26;2.63;;;2.10;;
25731;SDS011;13585;50.864;4.406;2023-08-24T06:02:51;2.35;;;2.15;;
25731;SDS011;13585;50.864;4.406;2023-08-24T06:05:17;2.97;;;2.38;;
25731;SDS011;13585;50.864;4.406;2023-08-24T06:07:43;3.83;;;2.38;;
25731;SDS011;13585;50.864;4.406;2023-08-24T06:10:10;5.00;;;2.50;;
25731;SDS011;13585;50.864;4.406;2023-08-24T06:12:36;3.53;;;1.90;;
25731;SDS011;13585;50.864;4.406;2023-08-24T06:15:03;3.63;;;2.40;;
25731;SDS011;13585;50.864;4.406;2023-08-24T06:17:29;4.28;;;2.28;;
25731;SDS011;13585;50.864;4.406;2023-08-24T06:19:55;3.97;;;2.33;;
25731;SDS011;13585;50.864;4.406;2023-08-24T06:22:21;2.28;;;2.08;;
25731;SDS011;13585;50.864;4.406;2023-08-24T06:24:46;4.95;;;2.40;;
25731;SDS011;13585;50.864;4.406;2023-08-24T06:27:12;5.05;;;2.40;;
25731;SDS011;13585;50.864;4.406;2023-08-24T06:29:37;3.80;;;2.42;;
25731;SDS011;13585;50.864;4.406;2023-08-24T06:32:07;3.05;;;2.30;;
25731;SDS011;13585;50.864;4.406;2023-08-24T06:34:32;3.15;;;2.33;;
25731;SDS011;13585;50.864;4.406;2023-08-24T06:37:00;4.13;;;2.60;;
25731;SDS011;13585;50.864;4.406;2023-08-24T06:39:26;6.75;;;2.55;;
25731;SDS011;13585;50.864;4.406;2023-08-24T06:41:52;3.00;;;2.22;;
25731;SDS011;13585;50.864;4.406;2023-08-24T06:44:18;3.95;;;2.80;;
25731;SDS011;13585;50.864;4.406;2023-08-24T06:46:43;3.33;;;2.20;;
25731;SDS011;13585;50.864;4.406;2023-08-24T06:49:09;5.10;;;2.90;;
25731;SDS011;13585;50.864;4.406;2023-08-24T06:51:34;7.20;;;2.60;;
25731;SDS011;13585;50.864;4.406;2023-08-24T06:54:00;3.60;;;2.55;;
25731;SDS011;13585;50.864;4.406;2023-08-24T06:56:26;4.63;;;2.58;;
25731;SDS011;13585;50.864;4.406;2023-08-24T06:58:51;4.18;;;2.60;;
25731;SDS011;13585;50.864;4.406;2023-08-24T07:01:17;4.82;;;2.63;;
25731;SDS011;13585;50.864;4.406;2023-08-24T07:03:42;4.32;;;2.40;;
25731;SDS011;13585;50.864;4.406;2023-08-24T07:06:08;4.82;;;2.22;;
25731;SDS011;13585;50.864;4.406;2023-08-24T07:08:37;3.25;;;2.20;;
25731;SDS011;13585;50.864;4.406;2023-08-24T07:11:02;6.10;;;2.83;;
25731;SDS011;13585;50.864;4.406;2023-08-24T07:13:28;6.15;;;2.70;;
25731;SDS011;13585;50.864;4.406;2023-08-24T07:15:54;4.55;;;2.70;;
25731;SDS011;13585;50.864;4.406;2023-08-24T07:18:20;3.47;;;2.53;;
25731;SDS011;13585;50.864;4.406;2023-08-24T07:20:46;4.65;;;2.63;;
25731;SDS011;13585;50.864;4.406;2023-08-24T07:23:19;4.53;;;2.45;;
25731;SDS011;13585;50.864;4.406;2023-08-24T07:25:44;3.25;;;2.38;;
25731;SDS011;13585;50.864;4.406;2023-08-24T07:28:16;5.30;;;2.60;;
25731;SDS011;13585;50.864;4.406;2023-08-24T07:30:42;3.97;;;2.42;;
25731;SDS011;13585;50.864;4.406;2023-08-24T07:33:07;4.03;;;2.70;;
25731;SDS011;13585;50.864;4.406;2023-08-24T07:35:33;6.63;;;2.53;;
25731;SDS011;13585;50.864;4.406;2023-08-24T07:37:59;5.28;;;2.70;;
25731;SDS011;13585;50.864;4.406;2023-08-24T07:40:26;4.80;;;2.20;;
25731;SDS011;13585;50.864;4.406;2023-08-24T07:42:51;3.95;;;2.47;;
25731;SDS011;13585;50.864;4.406;2023-08-24T07:45:19;4.65;;;3.40;;
25731;SDS011;13585;50.864;4.406;2023-08-24T07:47:48;4.57;;;2.88;;
25731;SDS011;13585;50.864;4.406;2023-08-24T07:50:14;5.53;;;2.88;;
25731;SDS011;13585;50.864;4.406;2023-08-24T07:52:40;3.65;;;2.60;;
25731;SDS011;13585;50.864;4.406;2023-08-24T07:55:06;3.95;;;2.65;;
25731;SDS011;13585;50.864;4.406;2023-08-24T07:57:35;5.82;;;2.65;;
25731;SDS011;13585;50.864;4.406;2023-08-24T08:00:03;5.38;;;2.67;;
25731;SDS011;13585;50.864;4.406;2023-08-24T08:02:29;5.38;;;3.05;;
25731;SDS011;13585;50.864;4.406;2023-08-24T08:04:57;7.13;;;3.05;;
25731;SDS011;13585;50.864;4.406;2023-08-24T08:07:24;4.40;;;2.72;;
25731;SDS011;13585;50.864;4.406;2023-08-24T08:09:50;8.50;;;3.15;;
25731;SDS011;13585;50.864;4.406;2023-08-24T08:12:18;7.15;;;3.58;;
25731;SDS011;13585;50.864;4.406;2023-08-24T08:14:44;6.40;;;3.20;;
25731;SDS011;13585;50.864;4.406;2023-08-24T08:17:09;5.97;;;3.10;;
25731;SDS011;13585;50.864;4.406;2023-08-24T08:19:35;8.25;;;3.80;;
25731;SDS011;13585;50.864;4.406;2023-08-24T08:22:02;9.95;;;3.75;;
25731;SDS011;13585;50.864;4.406;2023-08-24T08:24:31;7.97;;;3.20;;
25731;SDS011;13585;50.864;4.406;2023-08-24T08:27:00;10.98;;;3.40;;
25731;SDS011;13585;50.864;4.406;2023-08-24T08:29:32;7.50;;;3.15;;
25731;SDS011;13585;50.864;4.406;2023-08-24T08:31:58;5.80;;;3.20;;
25731;SDS011;13585;50.864;4.406;2023-08-24T08:34:26;6.78;;;2.97;;
25731;SDS011;13585;50.864;4.406;2023-08-24T08:36:51;4.43;;;3.10;;
25731;SDS011;13585;50.864;4.406;2023-08-24T08:39:17;6.03;;;2.92;;
25731;SDS011;13585;50.864;4.406;2023-08-24T08:41:43;5.15;;;2.90;;
25731;SDS011;13585;50.864;4.406;2023-08-24T08:44:10;4.50;;;3.00;;
25731;SDS011;13585;50.864;4.406;2023-08-24T08:46:39;6.97;;;3.33;;
25731;SDS011;13585;50.864;4.406;2023-08-24T08:49:06;4.60;;;2.88;;
25731;SDS011;13585;50.864;4.406;2023-08-24T08:51:35;4.15;;;2.85;;
25731;SDS011;13585;50.864;4.406;2023-08-24T08:54:02;7.78;;;3.35;;
25731;SDS011;13585;50.864;4.406;2023-08-24T08:56:30;7.70;;;4.05;;
25731;SDS011;13585;50.864;4.406;2023-08-24T08:58:56;8.13;;;3.50;;
25731;SDS011;13585;50.864;4.406;2023-08-24T09:01:24;5.40;;;3.20;;
25731;SDS011;13585;50.864;4.406;2023-08-24T09:03:50;4.30;;;2.90;;
25731;SDS011;13585;50.864;4.406;2023-08-24T09:06:19;8.20;;;3.35;;
25731;SDS011;13585;50.864;4.406;2023-08-24T09:08:45;8.55;;;3.45;;
25731;SDS011;13585;50.864;4.406;2023-08-24T09:11:12;7.10;;;3.13;;
25731;SDS011;13585;50.864;4.406;2023-08-24T09:13:39;4.68;;;2.92;;
25731;SDS011;13585;50.864;4.406;2023-08-24T09:16:05;6.18;;;3.08;;
25731;SDS011;13585;50.864;4.406;2023-08-24T09:18:39;6.93;;;3.30;;
25731;SDS011;13585;50.864;4.406;2023-08-24T09:21:08;4.18;;;2.88;;
25731;SDS011;13585;50.864;4.406;2023-08-24T09:23:34;5.20;;;2.95;;
25731;SDS011;13585;50.864;4.406;2023-08-24T09:26:00;6.05;;;3.20;;
25731;SDS011;13585;50.864;4.406;2023-08-24T09:28:26;5.50;;;2.80;;
25731;SDS011;13585;50.864;4.406;2023-08-24T09:30:52;5.60;;;3.30;;
25731;SDS011;13585;50.864;4.406;2023-08-24T09:33:19;4.60;;;2.80;;
25731;SDS011;13585;50.864;4.406;2023-08-24T09:35:51;4.93;;;2.85;;
25731;SDS011;13585;50.864;4.406;2023-08-24T09:38:26;6.00;;;3.15;;
25731;SDS011;13585;50.864;4.406;2023-08-24T09:40:53;6.38;;;3.05;;
25731;SDS011;13585;50.864;4.406;2023-08-24T09:43:19;7.45;;;3.05;;
25731;SDS011;13585;50.864;4.406;2023-08-24T09:48:22;7.28;;;3.25;;
25731;SDS011;13585;50.864;4.406;2023-08-24T09:50:51;4.32;;;2.88;;
25731;SDS011;13585;50.864;4.406;2023-08-24T09:53:18;7.68;;;3.28;;
25731;SDS011;13585;50.864;4.406;2023-08-24T09:58:21;5.85;;;3.10;;
25731;SDS011;13585;50.864;4.406;2023-08-24T10:00:47;6.90;;;2.78;;
25731;SDS011;13585;50.864;4.406;2023-08-24T10:03:15;4.35;;;2.88;;
25731;SDS011;13585;50.864;4.406;2023-08-24T10:05:47;5.43;;;2.83;;
25731;SDS011;13585;50.864;4.406;2023-08-24T10:08:17;6.65;;;3.00;;
25731;SDS011;13585;50.864;4.406;2023-08-24T10:10:50;9.35;;;3.10;;
25731;SDS011;13585;50.864;4.406;2023-08-24T10:16:20;5.55;;;2.95;;
25731;SDS011;13585;50.864;4.406;2023-08-24T10:18:47;4.60;;;2.75;;
25731;SDS011;13585;50.864;4.406;2023-08-24T10:21:16;6.40;;;3.05;;
25731;SDS011;13585;50.864;4.406;2023-08-24T10:23:46;3.60;;;2.65;;
25731;SDS011;13585;50.864;4.406;2023-08-24T10:26:14;6.63;;;2.90;;
25731;SDS011;13585;50.864;4.406;2023-08-24T10:28:42;6.22;;;3.28;;
25731;SDS011;13585;50.864;4.406;2023-08-24T10:31:09;5.63;;;3.30;;
25731;SDS011;13585;50.864;4.406;2023-08-24T10:33:35;8.07;;;3.55;;
25731;SDS011;13585;50.864;4.406;2023-08-24T10:36:04;6.40;;;3.20;;
25731;SDS011;13585;50.864;4.406;2023-08-24T10:38:31;8.00;;;3.20;;
25731;SDS011;13585;50.864;4.406;2023-08-24T10:41:02;6.93;;;2.83;;
25731;SDS011;13585;50.864;4.406;2023-08-24T10:43:29;5.90;;;3.60;;
25731;SDS011;13585;50.864;4.406;2023-08-24T10:46:00;6.95;;;3.63;;
25731;SDS011;13585;50.864;4.406;2023-08-24T10:48:29;5.57;;;2.83;;
25731;SDS011;13585;50.864;4.406;2023-08-24T10:51:18;4.78;;;3.00;;
25731;SDS011;13585;50.864;4.406;2023-08-24T10:53:47;6.05;;;3.20;;
25731;SDS011;13585;50.864;4.406;2023-08-24T10:56:17;5.78;;;2.97;;
25731;SDS011;13585;50.864;4.406;2023-08-24T10:58:43;5.75;;;3.13;;
25731;SDS011;13585;50.864;4.406;2023-08-24T11:01:16;6.00;;;2.78;;
25731;SDS011;13585;50.864;4.406;2023-08-24T11:03:54;6.50;;;3.15;;
25731;SDS011;13585;50.864;4.406;2023-08-24T11:06:21;5.03;;;3.00;;
25731;SDS011;13585;50.864;4.406;2023-08-24T11:08:48;8.20;;;3.00;;
25731;SDS011;13585;50.864;4.406;2023-08-24T11:11:23;5.75;;;2.60;;
25731;SDS011;13585;50.864;4.406;2023-08-24T11:16:50;10.18;;;4.03;;
25731;SDS011;13585;50.864;4.406;2023-08-24T11:19:16;7.10;;;3.00;;
25731;SDS011;13585;50.864;4.406;2023-08-24T11:21:44;4.95;;;2.67;;
25731;SDS011;13585;50.864;4.406;2023-08-24T11:24:13;5.28;;;2.83;;
25731;SDS011;13585;50.864;4.406;2023-08-24T11:26:48;5.35;;;2.47;;
25731;SDS011;13585;50.864;4.406;2023-08-24T11:29:14;6.80;;;3.08;;
25731;SDS011;13585;50.864;4.406;2023-08-24T11:31:41;4.95;;;2.70;;
25731;SDS011;13585;50.864;4.406;2023-08-24T11:34:07;4.47;;;2.80;;
25731;SDS011;13585;50.864;4.406;2023-08-24T11:39:28;6.75;;;2.80;;
25731;SDS011;13585;50.864;4.406;2023-08-24T11:44:28;8.40;;;3.10;;
25731;SDS011;13585;50.864;4.406;2023-08-24T11:46:57;4.35;;;2.80;;
25731;SDS011;13585;50.864;4.406;2023-08-24T11:49:23;6.70;;;2.80;;
25731;SDS011;13585;50.864;4.406;2023-08-24T11:51:50;5.25;;;2.67;;
25731;SDS011;13585;50.864;4.406;2023-08-24T11:54:19;4.55;;;2.78;;
25731;SDS011;13585;50.864;4.406;2023-08-24T11:56:45;4.15;;;2.50;;
25731;SDS011;13585;50.864;4.406;2023-08-24T11:59:15;5.00;;;2.42;;
25731;SDS011;13585;50.864;4.406;2023-08-24T12:01:41;5.32;;;2.70;;
25731;SDS011;13585;50.864;4.406;2023-08-24T12:04:08;4.47;;;2.65;;
25731;SDS011;13585;50.864;4.406;2023-08-24T12:06:34;8.13;;;3.00;;
25731;SDS011;13585;50.864;4.406;2023-08-24T12:09:00;3.53;;;2.30;;
25731;SDS011;13585;50.864;4.406;2023-08-24T12:11:27;4.93;;;2.67;;
25731;SDS011;13585;50.864;4.406;2023-08-24T12:13:54;7.65;;;2.80;;
25731;SDS011;13585;50.864;4.406;2023-08-24T12:16:20;4.65;;;2.70;;
25731;SDS011;13585;50.864;4.406;2023-08-24T12:21:18;5.63;;;2.75;;
25731;SDS011;13585;50.864;4.406;2023-08-24T12:23:44;6.07;;;2.75;;
25731;SDS011;13585;50.864;4.406;2023-08-24T12:26:19;4.80;;;2.60;;
25731;SDS011;13585;50.864;4.406;2023-08-24T12:28:48;6.20;;;2.85;;
25731;SDS011;13585;50.864;4.406;2023-08-24T12:31:16;7.33;;;3.20;;
25731;SDS011;13585;50.864;4.406;2023-08-24T12:33:42;7.00;;;2.50;;
25731;SDS011;13585;50.864;4.406;2023-08-24T12:36:09;4.68;;;2.55;;
25731;SDS011;13585;50.864;4.406;2023-08-24T12:38:34;6.75;;;3.20;;
25731;SDS011;13585;50.864;4.406;2023-08-24T12:41:00;6.30;;;2.97;;
25731;SDS011;13585;50.864;4.406;2023-08-24T12:43:26;6.38;;;2.80;;
25731;SDS011;13585;50.864;4.406;2023-08-24T12:45:52;5.70;;;2.45;;
25731;SDS011;13585;50.864;4.406;2023-08-24T12:48:18;5.90;;;3.08;;
25731;SDS011;13585;50.864;4.406;2023-08-24T12:50:47;7.32;;;3.13;;
25731;SDS011;13585;50.864;4.406;2023-08-24T12:53:12;5.47;;;2.75;;
25731;SDS011;13585;50.864;4.406;2023-08-24T12:55:38;5.85;;;2.65;;
25731;SDS011;13585;50.864;4.406;2023-08-24T12:58:05;7.90;;;2.60;;
25731;SDS011;13585;50.864;4.406;2023-08-24T13:00:31;6.32;;;2.50;;
25731;SDS011;13585;50.864;4.406;2023-08-24T13:02:56;6.40;;;3.15;;
25731;SDS011;13585;50.864;4.406;2023-08-24T13:05:22;7.15;;;2.60;;
25731;SDS011;13585;50.864;4.406;2023-08-24T13:07:49;4.35;;;2.42;;
25731;SDS011;13585;50.864;4.406;2023-08-24T13:10:16;6.28;;;2.28;;
25731;SDS011;13585;50.864;4.406;2023-08-24T13:12:41;14.43;;;2.33;;
25731;SDS011;13585;50.864;4.406;2023-08-24T13:15:07;4.20;;;2.47;;
25731;SDS011;13585;50.864;4.406;2023-08-24T13:17:33;4.90;;;2.08;;
25731;SDS011;13585;50.864;4.406;2023-08-24T13:19:58;7.95;;;2.53;;
25731;SDS011;13585;50.864;4.406;2023-08-24T13:22:24;5.65;;;2.60;;
25731;SDS011;13585;50.864;4.406;2023-08-24T13:24:50;4.03;;;2.30;;
25731;SDS011;13585;50.864;4.406;2023-08-24T13:27:15;3.70;;;2.10;;
25731;SDS011;13585;50.864;4.406;2023-08-24T13:29:41;4.63;;;2.30;;
25731;SDS011;13585;50.864;4.406;2023-08-24T13:32:07;7.00;;;2.28;;
25731;SDS011;13585;50.864;4.406;2023-08-24T13:34:32;4.20;;;2.22;;
25731;SDS011;13585;50.864;4.406;2023-08-24T13:36:58;6.28;;;2.40;;
25731;SDS011;13585;50.864;4.406;2023-08-24T13:39:26;4.18;;;2.53;;
25731;SDS011;13585;50.864;4.406;2023-08-24T13:41:57;5.38;;;2.33;;
25731;SDS011;13585;50.864;4.406;2023-08-24T13:44:22;4.40;;;2.25;;
25731;SDS011;13585;50.864;4.406;2023-08-24T13:46:48;5.63;;;2.60;;
25731;SDS011;13585;50.864;4.406;2023-08-24T13:49:14;6.03;;;2.47;;
25731;SDS011;13585;50.864;4.406;2023-08-24T13:51:40;4.95;;;2.17;;
25731;SDS011;13585;50.864;4.406;2023-08-24T13:54:13;3.78;;;2.10;;
25731;SDS011;13585;50.864;4.406;2023-08-24T13:56:42;3.08;;;2.08;;
25731;SDS011;13585;50.864;4.406;2023-08-24T13:59:08;5.20;;;2.38;;
25731;SDS011;13585;50.864;4.406;2023-08-24T14:01:34;4.60;;;2.10;;
25731;SDS011;13585;50.864;4.406;2023-08-24T14:04:00;3.88;;;2.25;;
25731;SDS011;13585;50.864;4.406;2023-08-24T14:06:37;7.38;;;2.45;;
25731;SDS011;13585;50.864;4.406;2023-08-24T14:09:03;4.18;;;1.95;;
25731;SDS011;13585;50.864;4.406;2023-08-24T14:11:29;5.85;;;2.55;;
25731;SDS011;13585;50.864;4.406;2023-08-24T14:13:55;5.13;;;2.50;;
25731;SDS011;13585;50.864;4.406;2023-08-24T14:16:22;6.03;;;2.40;;
25731;SDS011;13585;50.864;4.406;2023-08-24T14:18:47;4.18;;;2.15;;
25731;SDS011;13585;50.864;4.406;2023-08-24T14:21:14;7.32;;;2.97;;
25731;SDS011;13585;50.864;4.406;2023-08-24T14:23:40;9.23;;;3.50;;
25731;SDS011;13585;50.864;4.406;2023-08-24T14:26:05;6.65;;;2.83;;
25731;SDS011;13585;50.864;4.406;2023-08-24T14:28:47;7.18;;;2.78;;
25731;SDS011;13585;50.864;4.406;2023-08-24T14:31:29;4.45;;;2.58;;
25731;SDS011;13585;50.864;4.406;2023-08-24T14:33:55;4.28;;;2.60;;
25731;SDS011;13585;50.864;4.406;2023-08-24T14:36:21;5.28;;;2.08;;
25731;SDS011;13585;50.864;4.406;2023-08-24T14:38:48;5.65;;;2.92;;
25731;SDS011;13585;50.864;4.406;2023-08-24T14:41:14;8.02;;;2.70;;
25731;SDS011;13585;50.864;4.406;2023-08-24T14:43:52;6.85;;;2.50;;
25731;SDS011;13585;50.864;4.406;2023-08-24T14:46:18;7.82;;;2.80;;
25731;SDS011;13585;50.864;4.406;2023-08-24T14:48:43;5.88;;;2.40;;
25731;SDS011;13585;50.864;4.406;2023-08-24T14:51:09;4.00;;;2.10;;
25731;SDS011;13585;50.864;4.406;2023-08-24T14:53:35;6.25;;;2.65;;
25731;SDS011;13585;50.864;4.406;2023-08-24T14:56:00;6.28;;;2.47;;
25731;SDS011;13585;50.864;4.406;2023-08-24T14:58:26;4.18;;;2.47;;
25731;SDS011;13585;50.864;4.406;2023-08-24T15:00:53;6.03;;;2.20;;
25731;SDS011;13585;50.864;4.406;2023-08-24T15:03:20;7.10;;;2.03;;
25731;SDS011;13585;50.864;4.406;2023-08-24T15:05:55;3.83;;;1.92;;
25731;SDS011;13585;50.864;4.406;2023-08-24T15:08:22;3.05;;;1.90;;
25731;SDS011;13585;50.864;4.406;2023-08-24T15:10:48;7.13;;;2.40;;
25731;SDS011;13585;50.864;4.406;2023-08-24T15:13:14;3.63;;;1.90;;
25731;SDS011;13585;50.864;4.406;2023-08-24T15:15:40;4.15;;;1.75;;
25731;SDS011;13585;50.864;4.406;2023-08-24T15:18:05;5.07;;;2.20;;
25731;SDS011;13585;50.864;4.406;2023-08-24T15:20:31;5.93;;;1.98;;
25731;SDS011;13585;50.864;4.406;2023-08-24T15:22:58;4.07;;;2.03;;